Terminal Aerodrome Forecast
Issued by NWS

Home | Current Version | Previous Version | Text Only | Print | Product List | Glossary On
Versions: 1 2 3 4 5 6 7 8 9 10 11 12 13 14 15 16 17
000
FTUS43 KOAX 161700
TAFBFF
TAF
KBFF 161727Z 1618/1718 34025G35KT P6SM BKN035
     FM162200 36015KT P6SM BKN050
     FM170100 VRB05KT P6SM SCT060
     FM170800 13007KT 5SM BR BKN015
     FM171500 15010KT P6SM SCT020=

USA.gov is the U.S. government's official web portal to all federal, state and local government web resources and services.